Time;durP1;ratioP1;P1;durP2;ratioP2;P2;SDS_P1;SDS_P2;PMS_P1;PMS_P2;Temp;Humidity;BMP_temperature;BMP_pressure;BME280_temperature;BME280_humidity;BME280_pressure;Samples;Min_cycle;Max_cycle;Signal;HPM_P1;HPM_P2
2023/06/11 00:00:28;;;;;;;8.77;4.80;;;;;;;-142.75;100.00;76200.25;5025229;28;20613;-65
2023/06/11 00:02:54;;;;;;;6.50;3.53;;;;;;;-142.75;100.00;76194.34;5026098;28;20486;-66
2023/06/11 00:05:24;;;;;;;7.03;3.88;;;;;;;-142.75;100.00;76200.25;5025034;28;20502;-65
2023/06/11 00:07:50;;;;;;;5.78;3.80;;;;;;;-142.75;100.00;76210.06;5025598;28;20017;-65
2023/06/11 00:10:16;;;;;;;7.50;3.90;;;;;;;-142.75;100.00;76198.28;5025682;28;20444;-65
2023/06/11 00:12:42;;;;;;;8.52;4.50;;;;;;;-142.75;100.00;76204.16;5025366;28;20033;-65
2023/06/11 00:15:08;;;;;;;7.75;3.65;;;;;;;-142.75;100.00;76188.44;5025708;28;20051;-65
2023/06/11 00:17:33;;;;;;;6.90;4.05;;;;;;;-142.75;100.00;76206.13;5025335;28;20075;-65
2023/06/11 00:20:08;;;;;;;6.13;4.15;;;;;;;-142.75;100.00;76210.06;5025352;28;20021;-65
2023/06/11 00:22:34;;;;;;;8.32;3.95;;;;;;;-142.75;100.00;76214.00;5025306;28;20044;-65
2023/06/11 00:25:00;;;;;;;10.15;4.35;;;;;;;-142.75;100.00;76215.97;5025559;28;20481;-65
2023/06/11 00:27:26;;;;;;;6.68;4.55;;;;;;;-142.75;100.00;76215.97;5025208;28;20041;-65
2023/06/11 00:29:52;;;;;;;6.70;4.10;;;;;;;-142.75;100.00;76208.09;5025591;28;20068;-65
2023/06/11 00:32:17;;;;;;;8.90;4.57;;;;;;;-142.75;100.00;76206.13;5025023;28;20026;-65
2023/06/11 00:34:42;;;;;;;8.90;4.45;;;;;;;-142.75;100.00;76202.19;5025556;28;20075;-65
2023/06/11 00:37:08;;;;;;;9.13;4.13;;;;;;;-142.75;100.00;76208.09;5025306;28;20049;-65
2023/06/11 00:39:33;;;;;;;8.90;4.35;;;;;;;-142.75;100.00;76219.91;5025071;28;20427;-65
2023/06/11 00:41:59;;;;;;;8.63;4.95;;;;;;;-142.75;100.00;76227.78;5024972;28;20053;-65
2023/06/11 00:44:25;;;;;;;9.25;4.85;;;;;;;-142.75;100.00;76231.72;5025286;28;20053;-65
2023/06/11 00:46:52;;;;;;;8.63;4.90;;;;;;;-142.75;100.00;76229.75;5025341;28;20049;-65
2023/06/11 00:49:18;;;;;;;8.05;4.90;;;;;;;-142.75;100.00;76227.78;5025009;28;20025;-65
2023/06/11 00:51:46;;;;;;;8.20;4.22;;;;;;;-142.75;100.00;76215.97;5024988;28;20067;-66
2023/06/11 00:54:16;;;;;;;9.00;5.20;;;;;;;-142.75;100.00;76221.88;5024819;28;20029;-65
2023/06/11 00:56:48;;;;;;;8.80;4.82;;;;;;;-142.75;100.00;76208.09;5024995;28;20536;-65
2023/06/11 00:59:15;;;;;;;9.27;4.95;;;;;;;-142.75;100.00;76204.16;5024948;28;20414;-65
2023/06/11 01:02:12;;;;;;;8.85;4.70;;;;;;;-142.75;100.00;76200.25;5024900;28;20032;-65
2023/06/11 01:04:39;;;;;;;8.43;5.00;;;;;;;-142.75;100.00;76198.28;5018825;28;20037;-65
2023/06/11 01:07:10;;;;;;;7.65;5.05;;;;;;;-142.75;100.00;76194.34;5024976;28;20051;-66
2023/06/11 01:09:36;;;;;;;8.57;4.78;;;;;;;-142.75;100.00;76182.53;5024119;28;20022;-65
2023/06/11 01:12:02;;;;;;;12.35;4.82;;;;;;;-142.75;100.00;76180.56;5024429;28;20079;-66
2023/06/11 01:14:28;;;;;;;10.45;5.32;;;;;;;-142.75;100.00;76176.63;5024996;28;20029;-64
2023/06/11 01:17:04;;;;;;;8.80;5.20;;;;;;;-142.75;100.00;76180.56;5025660;28;20600;-66
2023/06/11 01:19:58;;;;;;;8.93;5.03;;;;;;;-142.75;100.00;76194.34;5029123;28;20037;-66
2023/06/11 01:22:56;;;;;;;7.80;5.53;;;;;;;-142.75;100.00;76176.63;5028581;28;20029;-66
2023/06/11 01:25:37;;;;;;;9.70;5.20;;;;;;;-142.75;100.00;76176.63;5028890;28;20034;-66
2023/06/11 01:28:10;;;;;;;7.70;4.60;;;;;;;-142.75;100.00;76174.66;5028442;28;20021;-65
2023/06/11 01:30:39;;;;;;;9.32;5.70;;;;;;;-142.75;100.00;76172.69;5028548;28;20029;-65
2023/06/11 01:33:05;;;;;;;9.88;5.68;;;;;;;-142.75;100.00;76174.66;5028716;28;20076;-66
2023/06/11 01:35:33;;;;;;;9.88;5.00;;;;;;;-142.75;100.00;76172.69;5028716;28;20021;-65
2023/06/11 01:37:59;;;;;;;10.20;5.90;;;;;;;-142.75;100.00;76172.69;5028304;28;20056;-65
2023/06/11 01:40:26;;;;;;;9.18;5.68;;;;;;;-142.75;100.00;76172.69;5028404;28;20037;-65
2023/06/11 01:42:52;;;;;;;13.13;5.63;;;;;;;-142.75;100.00;76170.72;5028365;28;20025;-66
2023/06/11 01:45:18;;;;;;;9.52;5.38;;;;;;;-142.75;100.00;76172.69;5026937;28;20104;-65
2023/06/11 01:47:48;;;;;;;11.40;5.80;;;;;;;-142.75;100.00;76168.75;5028073;28;20021;-65
2023/06/11 01:50:14;;;;;;;7.50;4.88;;;;;;;-142.75;100.00;76164.81;5028247;28;20056;-65
2023/06/11 01:52:40;;;;;;;7.85;6.13;;;;;;;-142.75;100.00;76170.72;5027922;28;20104;-64
2023/06/11 01:55:07;;;;;;;13.23;5.20;;;;;;;-142.75;100.00;76176.63;5028124;28;20021;-65
2023/06/11 01:57:33;;;;;;;10.13;5.63;;;;;;;-142.75;100.00;76182.53;5028084;28;20025;-65
2023/06/11 01:59:58;;;;;;;8.63;5.45;;;;;;;-142.75;100.00;76188.44;5027801;28;20028;-65
2023/06/11 02:02:26;;;;;;;9.02;5.50;;;;;;;-142.75;100.00;76192.38;5028233;28;20386;-65
2023/06/11 02:04:52;;;;;;;9.10;5.93;;;;;;;-142.75;100.00;76198.28;5028731;28;20044;-65
2023/06/11 02:07:17;;;;;;;7.15;4.82;;;;;;;-142.75;100.00;76208.09;5027770;28;20383;-64
2023/06/11 02:09:42;;;;;;;8.48;5.00;;;;;;;-142.75;100.00;76212.03;5027955;28;20028;-65
2023/06/11 02:12:08;;;;;;;9.50;5.70;;;;;;;-142.75;100.00;76214.00;5027555;28;20415;-65
2023/06/11 02:14:33;;;;;;;8.27;5.78;;;;;;;-142.75;100.00;76227.78;5027703;28;20029;-65
2023/06/11 02:16:59;;;;;;;8.68;5.70;;;;;;;-142.75;100.00;76227.78;5027792;28;20041;-65
2023/06/11 02:19:24;;;;;;;10.15;6.88;;;;;;;-142.75;100.00;76243.53;5026497;28;20652;-65
2023/06/11 02:21:49;;;;;;;10.27;6.22;;;;;;;-142.75;100.00;76245.50;5027743;28;20021;-65
2023/06/11 02:24:15;;;;;;;11.60;5.95;;;;;;;-142.75;100.00;76243.53;5027782;28;20102;-65
2023/06/11 02:26:40;;;;;;;8.63;5.82;;;;;;;-142.75;100.00;76235.66;5027868;28;20604;-65
2023/06/11 02:29:06;;;;;;;12.10;6.40;;;;;;;-142.75;100.00;76239.59;5026387;28;20104;-65
2023/06/11 02:31:31;;;;;;;11.35;6.43;;;;;;;-142.75;100.00;76239.59;5027569;28;20108;-65
2023/06/11 02:33:56;;;;;;;11.52;6.43;;;;;;;-142.75;100.00;76243.53;5028064;28;20104;-64
2023/06/11 02:36:21;;;;;;;9.40;6.97;;;;;;;-142.75;100.00;76251.41;5027294;28;20071;-65
2023/06/11 02:38:47;;;;;;;10.48;6.85;;;;;;;-142.75;100.00;76253.38;5027306;28;20014;-65
2023/06/11 02:41:12;;;;;;;11.57;6.45;;;;;;;-142.75;100.00;76259.28;5027136;28;20032;-65
2023/06/11 02:43:37;;;;;;;13.75;6.88;;;;;;;-142.75;100.00;76253.38;5027012;28;20034;-65
2023/06/11 02:46:03;;;;;;;8.90;6.22;;;;;;;-142.75;100.00;76251.41;5027194;28;20022;-65
2023/06/11 02:48:28;;;;;;;8.68;6.35;;;;;;;-142.75;100.00;76267.16;5027137;28;20029;-66
2023/06/11 02:50:53;;;;;;;10.50;6.60;;;;;;;-142.75;100.00;76280.94;5027196;28;20025;-65
2023/06/11 02:53:19;;;;;;;9.52;7.55;;;;;;;-142.75;100.00;76284.88;5026805;28;20025;-66
2023/06/11 02:55:44;;;;;;;14.52;7.40;;;;;;;-142.75;100.00;76282.91;5027174;28;20053;-64
2023/06/11 02:58:09;;;;;;;11.07;7.20;;;;;;;-142.75;100.00;76275.03;5026860;28;20045;-64
2023/06/11 03:00:35;;;;;;;10.05;7.15;;;;;;;-142.75;100.00;76269.13;5027088;28;20025;-65
2023/06/11 03:03:00;;;;;;;9.43;7.18;;;;;;;-142.75;100.00;76259.28;5027106;28;20565;-65
2023/06/11 03:05:25;;;;;;;12.25;7.18;;;;;;;-142.75;100.00;76259.28;5027322;28;20168;-65
2023/06/11 03:07:50;;;;;;;13.60;7.05;;;;;;;-142.75;100.00;76255.34;5026709;28;20159;-65
2023/06/11 03:10:16;;;;;;;13.98;7.30;;;;;;;-142.75;100.00;76251.41;5026664;28;20028;-65
2023/06/11 03:12:41;;;;;;;10.23;7.40;;;;;;;-142.75;100.00;76249.44;5026423;28;20021;-65
2023/06/11 03:15:07;;;;;;;10.95;7.25;;;;;;;-142.75;100.00;76247.47;5026455;28;20034;-65
2023/06/11 03:17:32;;;;;;;13.48;7.68;;;;;;;-142.75;100.00;76251.41;5026505;28;20036;-65
2023/06/11 03:19:57;;;;;;;15.85;7.07;;;;;;;-142.75;100.00;76249.44;5026585;28;20037;-65
2023/06/11 03:22:23;;;;;;;11.45;7.50;;;;;;;-142.75;100.00;76247.47;5026234;28;20026;-64
2023/06/11 03:24:48;;;;;;;11.57;7.65;;;;;;;-142.75;100.00;76233.69;5026526;28;20529;-65
2023/06/11 03:27:13;;;;;;;14.10;6.60;;;;;;;-142.75;100.00;76223.84;5026446;28;20044;-65
2023/06/11 03:29:39;;;;;;;9.70;7.35;;;;;;;-142.75;100.00;76217.94;5026221;28;20644;-65
2023/06/11 03:32:05;;;;;;;10.80;7.53;;;;;;;-142.75;100.00;76227.78;5026484;28;20025;-65
2023/06/11 03:34:30;;;;;;;10.93;7.78;;;;;;;-142.75;100.00;76235.66;5026748;28;20366;-65
2023/06/11 03:36:55;;;;;;;8.77;7.25;;;;;;;-142.75;100.00;76231.72;5026410;28;20405;-65
2023/06/11 03:39:20;;;;;;;12.52;7.40;;;;;;;-142.75;100.00;76233.69;5026129;28;20029;-65
2023/06/11 03:41:46;;;;;;;10.25;7.20;;;;;;;-142.75;100.00;76233.69;5025866;28;20083;-65
2023/06/11 03:44:12;;;;;;;12.20;8.23;;;;;;;-142.75;100.00;76235.66;5026002;28;20701;-65
2023/06/11 03:46:37;;;;;;;9.80;7.13;;;;;;;-142.75;100.00;76231.72;5026024;28;20021;-65
2023/06/11 03:49:02;;;;;;;11.20;7.63;;;;;;;-142.75;100.00;76223.84;5025926;28;20056;-65
2023/06/11 03:51:28;;;;;;;11.02;7.32;;;;;;;-142.75;100.00;76214.00;5025506;28;20033;-62
2023/06/11 03:53:53;;;;;;;17.98;8.63;;;;;;;-142.75;100.00;76212.03;5026154;28;20104;-65
2023/06/11 03:56:18;;;;;;;9.95;7.53;;;;;;;-142.75;100.00;76215.97;5025848;28;20397;-65
2023/06/11 03:58:44;;;;;;;9.88;6.88;;;;;;;-142.75;100.00;76215.97;5025773;28;20035;-65
2023/06/11 04:01:09;;;;;;;10.88;7.75;;;;;;;-142.75;100.00;76219.91;5025458;28;20087;-65
2023/06/11 04:03:35;;;;;;;10.60;7.78;;;;;;;-142.75;100.00;76215.97;5026247;28;20032;-65
2023/06/11 04:06:01;;;;;;;11.40;7.18;;;;;;;-142.75;100.00;76212.03;5026160;28;20025;-65
2023/06/11 04:08:26;;;;;;;11.93;8.13;;;;;;;-142.75;100.00;76215.97;5025650;28;20025;-65
2023/06/11 04:10:52;;;;;;;11.77;8.15;;;;;;;-142.75;100.00;76215.97;5025993;28;20041;-66
2023/06/11 04:13:17;;;;;;;12.07;8.25;;;;;;;-142.75;100.00;76225.81;5025257;28;20048;-65
2023/06/11 04:15:42;;;;;;;12.18;7.70;;;;;;;-142.75;100.00;76229.75;5025565;28;20107;-65
2023/06/11 04:18:09;;;;;;;12.27;8.07;;;;;;;-142.75;100.00;76243.53;5025197;28;20060;-65
2023/06/11 04:20:35;;;;;;;12.85;8.30;;;;;;;-142.75;100.00;76247.47;5025434;28;20626;-66
2023/06/11 04:23:00;;;;;;;12.55;8.40;;;;;;;-142.75;100.00;76247.47;5025467;28;20026;-64
2023/06/11 04:25:26;;;;;;;11.45;8.25;;;;;;;-142.75;100.00;76249.44;5025413;28;20105;-66
2023/06/11 04:27:52;;;;;;;12.40;8.75;;;;;;;-142.75;100.00;76251.41;5025102;28;20025;-65
2023/06/11 04:30:18;;;;;;;13.70;9.07;;;;;;;-142.75;100.00;76255.34;5025348;28;20104;-65
2023/06/11 04:32:44;;;;;;;11.55;8.80;;;;;;;-142.75;100.00;76251.41;5025441;28;20463;-65
2023/06/11 04:35:10;;;;;;;14.20;8.68;;;;;;;-142.75;100.00;76243.53;5025685;28;20029;-65
2023/06/11 04:37:39;;;;;;;16.25;8.43;;;;;;;-142.75;100.00;76233.69;5025237;28;20032;-65
2023/06/11 04:40:11;;;;;;;15.32;8.55;;;;;;;-142.75;100.00;76237.63;5025430;28;20116;-65
2023/06/11 04:42:40;;;;;;;10.85;7.97;;;;;;;-142.75;100.00;76231.72;5024785;28;20029;-64
2023/06/11 04:45:09;;;;;;;12.10;8.55;;;;;;;-142.75;100.00;76219.91;5025155;28;20099;-65
2023/06/11 04:47:35;;;;;;;14.65;8.38;;;;;;;-142.75;100.00;76212.03;5025130;28;20079;-65
2023/06/11 04:50:04;;;;;;;13.13;8.82;;;;;;;-142.75;100.00;76208.09;5025099;28;20550;-65
2023/06/11 04:52:37;;;;;;;15.38;9.75;;;;;;;-142.75;100.00;76200.25;5028315;28;20056;-64
2023/06/11 04:55:03;;;;;;;13.23;8.82;;;;;;;-142.75;100.00;76190.41;5031725;28;20164;-65
2023/06/11 04:57:32;;;;;;;15.50;9.00;;;;;;;-142.75;100.00;76180.56;5031474;28;20613;-61
2023/06/11 04:59:58;;;;;;;12.63;8.88;;;;;;;-142.75;100.00;76172.69;5031893;28;20025;-65
2023/06/11 05:02:25;;;;;;;11.50;8.25;;;;;;;-142.75;100.00;76166.78;5030702;28;20104;-65
2023/06/11 05:04:53;;;;;;;13.82;9.25;;;;;;;-142.75;100.00;76154.97;5032014;28;20160;-65
2023/06/11 05:07:21;;;;;;;12.27;8.73;;;;;;;-142.75;100.00;76158.91;5031465;28;20059;-65
2023/06/11 05:09:47;;;;;;;11.73;9.27;;;;;;;-142.75;100.00;76143.16;5031329;28;20025;-66
2023/06/11 05:12:12;;;;;;;12.77;9.82;;;;;;;-142.75;100.00;76139.22;5031559;28;20025;-64
2023/06/11 05:14:38;;;;;;;11.85;8.80;;;;;;;-142.75;100.00;76137.25;5031716;28;20021;-66
2023/06/11 05:17:04;;;;;;;13.48;9.32;;;;;;;-142.75;100.00;76125.44;5031622;28;20017;-65
2023/06/11 05:19:29;;;;;;;12.80;9.13;;;;;;;-142.75;100.00;76109.69;5031204;28;20032;-65
2023/06/11 05:21:55;;;;;;;13.10;9.32;;;;;;;-142.75;100.00;76103.78;5031452;28;20113;-65
2023/06/11 05:24:20;;;;;;;12.38;9.35;;;;;;;-142.75;100.00;76107.72;5031366;28;20025;-65
2023/06/11 05:26:46;;;;;;;15.38;9.52;;;;;;;-142.75;100.00;76095.91;5031439;28;20723;-64
2023/06/11 05:29:12;;;;;;;14.07;8.70;;;;;;;-142.75;100.00;76086.06;5031074;28;20036;-65
2023/06/11 05:31:38;;;;;;;12.40;8.52;;;;;;;-142.75;100.00;76070.34;5031274;28;20025;-65
2023/06/11 05:34:03;;;;;;;13.52;9.73;;;;;;;-142.75;100.00;76058.53;5031876;28;20483;-65
2023/06/11 05:36:29;;;;;;;12.90;9.35;;;;;;;-142.75;100.00;76054.59;5030981;28;20441;-63
2023/06/11 05:38:54;;;;;;;12.25;8.90;;;;;;;-142.75;100.00;76038.84;5031454;28;20036;-65
2023/06/11 05:41:21;;;;;;;13.95;9.55;;;;;;;-142.75;100.00;76038.84;5031305;28;20541;-65
2023/06/11 05:43:46;;;;;;;14.30;9.18;;;;;;;-142.75;100.00;76042.78;5031338;28;20033;-65
2023/06/11 05:46:13;;;;;;;13.40;9.15;;;;;;;-142.75;100.00;76029.00;5031373;28;20502;-65
2023/06/11 05:48:39;;;;;;;11.55;8.90;;;;;;;-142.75;100.00;76019.16;5030572;28;20522;-65
2023/06/11 05:51:04;;;;;;;14.70;9.65;;;;;;;-142.75;100.00;76015.22;5030710;28;20026;-64
2023/06/11 05:53:29;;;;;;;19.42;9.57;;;;;;;-142.75;100.00;76007.34;5030257;28;20584;-64
2023/06/11 05:55:55;;;;;;;14.10;9.02;;;;;;;-142.75;100.00;76003.41;5030427;28;20021;-65
2023/06/11 05:58:20;;;;;;;11.43;9.15;;;;;;;-142.75;100.00;75999.47;5030122;28;20033;-65
2023/06/11 06:00:45;;;;;;;12.63;9.98;;;;;;;-142.75;100.00;75989.63;5030351;28;20013;-65
2023/06/11 06:03:11;;;;;;;14.52;9.73;;;;;;;-142.75;100.00;75991.59;5029124;28;20056;-65
2023/06/11 06:05:36;;;;;;;13.65;9.35;;;;;;;-142.75;100.00;75975.84;5027378;28;20033;-65
2023/06/11 06:08:01;;;;;;;14.27;10.32;;;;;;;-142.75;100.00;75967.97;5027030;28;20089;-65
2023/06/11 06:10:26;;;;;;;12.13;9.07;;;;;;;-142.75;100.00;75954.22;5027299;28;20112;-65
2023/06/11 06:12:52;;;;;;;13.02;9.80;;;;;;;-142.75;100.00;75950.28;5026930;28;20032;-65
2023/06/11 06:15:17;;;;;;;12.75;9.23;;;;;;;-142.75;100.00;75934.53;5027160;28;20285;-65
2023/06/11 06:17:42;;;;;;;16.90;10.75;;;;;;;-142.75;100.00;75932.56;5027021;28;20478;-65
2023/06/11 06:20:10;;;;;;;13.20;9.38;;;;;;;-142.75;100.00;75920.75;5027291;28;20541;-65
2023/06/11 06:22:37;;;;;;;13.07;10.20;;;;;;;-142.75;100.00;75908.94;5027419;28;20090;-65
2023/06/11 06:25:02;;;;;;;12.55;9.70;;;;;;;-142.75;100.00;75908.94;5027149;28;20517;-65
2023/06/11 06:27:27;;;;;;;12.73;9.55;;;;;;;-142.75;100.00;75908.94;5027480;28;20112;-66
2023/06/11 06:29:53;;;;;;;11.88;9.32;;;;;;;-142.75;100.00;75908.94;5027078;28;20394;-65
2023/06/11 06:32:18;;;;;;;14.02;9.38;;;;;;;-142.75;100.00;75906.97;5026797;28;20025;-65
2023/06/11 06:34:44;;;;;;;12.23;9.25;;;;;;;-142.75;100.00;75887.28;5027247;28;20021;-66
2023/06/11 06:37:09;;;;;;;13.45;10.18;;;;;;;-142.75;100.00;75883.34;5026328;28;20021;-66
2023/06/11 06:39:34;;;;;;;12.88;9.13;;;;;;;-142.75;100.00;75865.63;5026717;28;20161;-64
2023/06/11 06:42:00;;;;;;;14.25;10.55;;;;;;;-142.75;100.00;75861.69;5026432;28;20052;-65
2023/06/11 06:44:25;;;;;;;16.00;9.93;;;;;;;-142.75;100.00;75842.03;5026741;28;20029;-65
2023/06/11 06:46:53;;;;;;;14.43;9.32;;;;;;;-142.75;100.00;75842.03;5026681;28;20022;-66
2023/06/11 06:49:20;;;;;;;16.27;9.88;;;;;;;-142.75;100.00;75853.84;5026416;28;20216;-65
2023/06/11 06:51:45;;;;;;;12.65;10.25;;;;;;;-142.75;100.00;75857.78;5026664;28;20025;-65
2023/06/11 06:54:10;;;;;;;15.93;9.68;;;;;;;-142.75;100.00;75853.84;5026427;28;20041;-65
2023/06/11 06:56:36;;;;;;;15.43;10.23;;;;;;;-142.75;100.00;75851.88;5026113;28;20033;-64
2023/06/11 06:59:02;;;;;;;15.73;10.15;;;;;;;-142.75;100.00;75836.13;5026388;28;20029;-64
2023/06/11 07:01:27;;;;;;;14.23;10.13;;;;;;;-142.75;100.00;75810.53;5026578;28;20017;-65
2023/06/11 07:03:52;;;;;;;12.52;9.93;;;;;;;-142.75;100.00;75796.75;5027456;28;20037;-65
2023/06/11 07:06:18;;;;;;;11.75;9.00;;;;;;;-142.75;100.00;75798.72;5026633;28;20021;-65
2023/06/11 07:08:43;;;;;;;13.77;9.85;;;;;;;-142.75;100.00;75788.88;5026804;28;20258;-65
2023/06/11 07:11:09;;;;;;;13.90;10.75;;;;;;;-142.75;100.00;75792.81;5026743;28;20506;-65
2023/06/11 07:13:35;;;;;;;12.43;10.13;;;;;;;-142.75;100.00;75779.03;5026654;28;20028;-65
2023/06/11 07:16:00;;;;;;;15.95;10.25;;;;;;;-142.75;100.00;75747.56;5026503;28;20158;-64
2023/06/11 07:18:27;;;;;;;14.40;10.18;;;;;;;-142.75;100.00;75731.81;5027394;28;20025;-65
2023/06/11 07:20:53;;;;;;;13.10;9.93;;;;;;;-142.75;100.00;75731.81;5027017;28;20621;-65
2023/06/11 07:23:18;;;;;;;13.60;9.90;;;;;;;-142.75;100.00;75716.06;5027191;28;20024;-65
2023/06/11 07:25:44;;;;;;;11.70;9.27;;;;;;;-142.75;100.00;75696.38;5027832;28;20112;-65
2023/06/11 07:28:10;;;;;;;12.77;9.15;;;;;;;-142.75;100.00;75680.63;5027551;28;20546;-66
2023/06/11 07:30:35;;;;;;;15.48;9.75;;;;;;;-142.75;100.00;75668.84;5027816;28;20108;-65
2023/06/11 07:33:01;;;;;;;14.82;10.02;;;;;;;-142.75;100.00;75664.91;5026669;28;20116;-64
2023/06/11 07:35:27;;;;;;;14.35;9.88;;;;;;;-142.75;100.00;75649.16;5027747;28;20671;-65
2023/06/11 07:37:53;;;;;;;15.98;10.05;;;;;;;-142.75;100.00;75629.47;5027390;28;20034;-65
2023/06/11 07:40:19;;;;;;;15.82;9.50;;;;;;;-142.75;100.00;75617.66;5027578;28;20029;-65
2023/06/11 07:42:45;;;;;;;14.80;9.93;;;;;;;-142.75;100.00;75592.09;5042465;28;20410;-66
2023/06/11 07:45:12;;;;;;;14.65;9.70;;;;;;;-142.75;100.00;75603.88;5027412;28;20065;-65
2023/06/11 07:47:38;;;;;;;15.23;9.70;;;;;;;-142.75;100.00;75592.09;5027185;28;20033;-66
2023/06/11 07:50:04;;;;;;;12.05;8.85;;;;;;;-142.75;100.00;75574.38;5027223;28;20514;-65
2023/06/11 07:52:30;;;;;;;11.80;9.20;;;;;;;-142.75;100.00;75552.72;5026821;28;20033;-64
2023/06/11 07:54:55;;;;;;;12.13;9.43;;;;;;;-142.75;100.00;75544.84;5027524;28;20094;-66
2023/06/11 07:57:21;;;;;;;11.70;9.20;;;;;;;-142.75;100.00;75519.25;5026955;28;20132;-65
2023/06/11 07:59:46;;;;;;;13.15;9.07;;;;;;;-142.75;100.00;75501.56;5027118;28;20025;-65
2023/06/11 08:02:11;;;;;;;12.45;8.57;;;;;;;-142.75;98.68;75507.47;5026794;28;20029;-66
2023/06/11 08:04:37;;;;;;;13.95;9.38;;;;;;;-142.75;100.00;75489.75;5026885;28;20116;-65
2023/06/11 08:07:03;;;;;;;10.70;9.18;;;;;;;-142.75;100.00;75483.84;5027014;28;20021;-64
2023/06/11 08:09:29;;;;;;;10.07;8.32;;;;;;;-142.75;100.00;75468.09;5026833;28;20107;-68
2023/06/11 08:11:54;;;;;;;11.48;8.70;;;;;;;-142.75;100.00;75446.44;5026618;28;20146;-66
2023/06/11 08:14:20;;;;;;;16.08;9.75;;;;;;;-142.75;100.00;75430.72;5026619;28;20474;-66
2023/06/11 08:16:46;;;;;;;11.63;8.65;;;;;;;-142.75;98.48;75413.00;5026711;28;20034;-66
2023/06/11 08:19:12;;;;;;;13.93;9.00;;;;;;;-142.75;99.08;75403.16;5026123;28;20044;-64
2023/06/11 08:21:38;;;;;;;12.05;8.38;;;;;;;-142.75;97.59;75387.41;5025319;28;20029;-65
2023/06/11 08:24:03;;;;;;;12.02;8.45;;;;;;;-142.75;92.95;75385.44;5041159;28;20024;-65
2023/06/11 08:26:29;;;;;;;12.02;8.43;;;;;;;-142.75;94.12;75381.50;5025311;28;20522;-67
2023/06/11 08:28:54;;;;;;;10.48;8.52;;;;;;;-142.75;97.16;75369.69;5025897;28;20434;-65
2023/06/11 08:31:19;;;;;;;13.70;8.90;;;;;;;-142.75;94.99;75350.03;5040874;28;20036;-65
2023/06/11 08:33:45;;;;;;;9.70;8.40;;;;;;;-142.75;92.75;75359.88;5025573;28;20489;-66
2023/06/11 08:36:10;;;;;;;11.80;8.27;;;;;;;-142.75;91.70;75352.00;5026493;28;20033;-65
2023/06/11 08:38:35;;;;;;;14.52;8.48;;;;;;;-142.75;93.69;75348.06;5025782;28;20033;-65
2023/06/11 08:41:01;;;;;;;12.38;8.80;;;;;;;-142.75;90.07;75350.03;5025469;28;20036;-66
2023/06/11 08:43:26;;;;;;;9.23;8.10;;;;;;;-142.75;91.36;75350.03;5025732;28;20033;-65
2023/06/11 08:45:52;;;;;;;11.60;8.65;;;;;;;-142.75;90.46;75336.25;5025704;28;20108;-65
2023/06/11 08:48:20;;;;;;;11.52;8.45;;;;;;;-142.75;89.29;75338.22;5024127;28;20108;-65
2023/06/11 08:50:48;;;;;;;11.73;7.72;;;;;;;-142.75;90.44;75340.19;5024599;28;20025;-65
2023/06/11 08:53:13;;;;;;;12.35;8.50;;;;;;;-142.75;88.83;75350.03;5025899;28;20033;-66
2023/06/11 08:55:41;;;;;;;11.13;8.48;;;;;;;-142.75;93.88;75326.41;5025249;28;20075;-66
2023/06/11 08:58:07;;;;;;;12.07;9.00;;;;;;;-142.75;92.02;75318.53;5024736;28;20022;-66
2023/06/11 09:00:34;;;;;;;12.38;8.85;;;;;;;-142.75;93.25;75298.84;5025248;28;20061;-67
2023/06/11 09:03:01;;;;;;;10.13;8.85;;;;;;;-142.75;92.80;75259.50;5025194;28;20102;-67
2023/06/11 09:05:27;;;;;;;11.02;8.70;;;;;;;-142.75;93.06;75224.09;5025434;28;20052;-66
2023/06/11 09:07:52;;;;;;;10.48;8.30;;;;;;;-142.75;89.46;75196.53;5026162;28;20025;-66
2023/06/11 09:10:19;;;;;;;10.88;9.02;;;;;;;-142.75;86.98;75184.72;5026519;28;20021;-66
2023/06/11 09:12:45;;;;;;;11.70;8.68;;;;;;;-142.75;88.16;75188.66;5025550;28;20636;-66
2023/06/11 09:15:12;;;;;;;13.02;8.50;;;;;;;-142.75;86.41;75165.03;5025252;28;20102;-67
2023/06/11 09:17:40;;;;;;;12.38;9.15;;;;;;;-142.75;85.89;75141.44;5024254;28;20546;-66
2023/06/11 09:20:15;;;;;;;10.90;8.35;;;;;;;-142.75;89.17;75165.03;5025947;28;20021;-67
2023/06/11 09:22:42;;;;;;;12.13;9.02;;;;;;;-142.75;85.82;75151.28;5025996;28;20053;-67
2023/06/11 09:25:10;;;;;;;10.40;8.50;;;;;;;-142.75;84.84;75147.34;5026004;28;20063;-67
2023/06/11 09:27:39;;;;;;;11.15;8.35;;;;;;;-142.75;84.59;75153.25;5025543;28;20017;-68
2023/06/11 09:30:10;;;;;;;12.57;8.13;;;;;;;-142.75;85.33;75147.34;5024421;28;20021;-67
2023/06/11 09:32:39;;;;;;;9.90;7.35;;;;;;;-142.75;90.76;75141.44;5024614;28;20029;-67
2023/06/11 09:35:07;;;;;;;9.90;8.50;;;;;;;-142.75;83.60;75121.75;5025812;28;20135;-67
2023/06/11 09:37:52;;;;;;;10.38;8.77;;;;;;;-142.75;82.83;75094.22;5025437;28;20118;-67
2023/06/11 09:40:20;;;;;;;11.30;7.72;;;;;;;-142.75;85.03;75106.00;5027854;28;20107;-67
2023/06/11 09:42:48;;;;;;;10.27;8.35;;;;;;;-142.75;84.08;75082.41;5028455;28;20025;-67
2023/06/11 09:45:16;;;;;;;10.13;7.78;;;;;;;-142.75;84.02;75064.69;5029425;28;20024;-66
2023/06/11 09:47:43;;;;;;;12.25;8.77;;;;;;;-142.75;81.93;75050.91;5029141;28;20064;-67
2023/06/11 09:50:09;;;;;;;11.55;8.70;;;;;;;-142.75;82.02;75064.69;5029131;28;20017;-67
2023/06/11 09:52:34;;;;;;;11.52;8.10;;;;;;;-142.75;84.69;75066.66;5027395;28;20021;-67
2023/06/11 09:55:01;;;;;;;11.50;8.65;;;;;;;-142.75;80.62;75072.56;5027905;28;20047;-67
2023/06/11 09:57:28;;;;;;;9.98;7.80;;;;;;;-142.75;83.83;75064.69;5028799;28;20035;-66
2023/06/11 09:59:54;;;;;;;9.40;7.40;;;;;;;-142.75;83.66;75056.81;5027369;28;20025;-67
2023/06/11 10:02:19;;;;;;;10.32;7.53;;;;;;;-142.75;82.10;75035.19;5028646;28;20144;-67
2023/06/11 10:04:45;;;;;;;14.05;8.57;;;;;;;-142.75;79.69;75031.25;5028861;28;20104;-66
2023/06/11 10:07:11;;;;;;;10.43;7.53;;;;;;;-142.75;82.68;75037.16;5028935;28;20024;-66
2023/06/11 10:09:39;;;;;;;14.13;7.65;;;;;;;-142.75;80.99;75054.84;5028462;28;20021;-67
2023/06/11 10:12:06;;;;;;;10.77;7.75;;;;;;;-142.75;82.26;75060.75;5028677;28;20028;-67
2023/06/11 10:14:32;;;;;;;9.63;6.68;;;;;;;-142.75;78.14;75084.38;5028767;28;20025;-66
2023/06/11 10:16:57;;;;;;;9.02;6.95;;;;;;;-142.75;78.85;75107.97;5028962;28;20037;-67
2023/06/11 10:19:22;;;;;;;10.63;7.20;;;;;;;-142.75;80.76;75090.28;5028782;28;20460;-67
2023/06/11 10:21:51;;;;;;;9.63;7.22;;;;;;;-142.75;80.82;75090.28;5028523;28;20036;-67
2023/06/11 10:24:25;;;;;;;9.77;7.55;;;;;;;-142.75;80.95;75090.28;5027390;28;20025;-67
2023/06/11 10:27:07;;;;;;;10.00;6.75;;;;;;;-142.75;79.87;75080.44;5028644;28;20037;-66
2023/06/11 10:29:45;;;;;;;9.68;6.95;;;;;;;-142.75;80.92;75046.97;5027370;28;20017;-66
2023/06/11 10:32:19;;;;;;;10.30;6.80;;;;;;;-142.75;79.47;75046.97;5027791;28;20083;-66
2023/06/11 10:34:47;;;;;;;11.82;6.50;;;;;;;-142.75;82.57;75029.28;5028324;28;20028;-66
2023/06/11 10:37:13;;;;;;;12.40;6.78;;;;;;;-142.75;78.44;75015.50;5028134;28;20067;-67
2023/06/11 10:39:50;;;;;;;7.25;5.82;;;;;;;-142.75;76.62;75011.56;5028028;28;20033;-66
2023/06/11 10:42:23;;;;;;;7.93;6.60;;;;;;;-142.75;77.89;75035.19;5026875;28;20075;-66
2023/06/11 10:44:48;;;;;;;9.35;6.57;;;;;;;-142.75;77.04;75019.44;5027382;28;20048;-66
2023/06/11 10:47:14;;;;;;;8.73;6.75;;;;;;;-142.75;77.86;75015.50;5027966;28;20077;-67
2023/06/11 10:49:40;;;;;;;8.00;6.30;;;;;;;-142.75;79.63;75009.59;5027877;28;20053;-67
2023/06/11 10:52:05;;;;;;;8.95;5.57;;;;;;;-142.75;78.21;75003.69;5028257;28;20032;-66
2023/06/11 10:54:34;;;;;;;9.20;5.75;;;;;;;-142.75;74.20;74987.94;5028395;28;20025;-65
2023/06/11 10:57:01;;;;;;;7.00;5.45;;;;;;;-142.75;72.74;75023.38;5028339;28;20029;-65
2023/06/11 10:59:27;;;;;;;7.80;5.53;;;;;;;-142.75;73.96;75031.25;5028279;28;20025;-66
2023/06/11 11:01:53;;;;;;;6.38;5.03;;;;;;;-142.75;76.85;75001.72;5027817;28;20021;-66